createdAt,value
2023-07-25T00:10:27.541Z,99.90
2023-07-25T00:25:40.388Z,99.90
2023-07-25T00:35:54.222Z,99.90
2023-07-25T00:40:59.200Z,99.90
2023-07-25T00:46:03.222Z,99.90
2023-07-25T00:51:08.193Z,99.90
2023-07-25T00:56:14.886Z,99.90
2023-07-25T01:11:28.814Z,99.90
2023-07-25T01:26:41.900Z,99.90
2023-07-25T01:41:54.784Z,99.90
2023-07-25T01:57:08.740Z,99.90
2023-07-25T02:12:21.773Z,99.90
2023-07-25T02:27:35.210Z,99.90
2023-07-25T02:42:48.315Z,99.90
2023-07-25T02:58:01.524Z,99.90
2023-07-25T03:03:05.252Z,99.90
2023-07-25T03:13:14.182Z,99.90
2023-07-25T03:28:27.117Z,99.90
2023-07-25T03:43:40.054Z,99.90
2023-07-25T03:58:52.860Z,99.90
2023-07-25T04:14:05.891Z,99.90
2023-07-25T04:29:19.239Z,99.90
2023-07-25T04:44:32.228Z,99.90
2023-07-25T04:59:44.940Z,99.90
2023-07-25T05:04:48.977Z,99.90
2023-07-25T05:14:57.952Z,99.90
2023-07-25T05:25:06.495Z,99.90
2023-07-25T05:30:12.140Z,99.90
2023-07-25T05:45:25.258Z,99.90
2023-07-25T05:50:28.851Z,99.90
2023-07-25T06:00:37.740Z,99.90
2023-07-25T06:15:51.306Z,99.90
2023-07-25T06:31:06.055Z,99.90
2023-07-25T06:46:19.095Z,99.90
2023-07-25T06:51:23.107Z,99.90
2023-07-25T07:01:32.348Z,99.90
2023-07-25T07:06:36.188Z,99.90
2023-07-25T07:16:45.189Z,99.90
2023-07-25T07:32:00.663Z,99.90
2023-07-25T07:47:14.492Z,99.90
2023-07-25T07:57:42.312Z,99.90
2023-07-25T08:02:47.687Z,99.90
2023-07-25T08:18:00.797Z,99.90
2023-07-25T08:33:16.357Z,99.90
2023-07-25T08:43:25.650Z,99.90
2023-07-25T08:48:33.040Z,99.90
2023-07-25T08:53:39.446Z,99.90
2023-07-25T08:58:45.678Z,99.90
2023-07-25T09:03:51.200Z,99.90
2023-07-25T09:08:55.536Z,99.90
2023-07-25T09:19:04.478Z,94.60
2023-07-25T09:34:24.823Z,92.20
2023-07-25T09:39:35.939Z,90.10
2023-07-25T09:49:51.829Z,83.50
2023-07-25T10:00:01.552Z,87.70
2023-07-25T10:05:08.574Z,88.50
2023-07-25T10:10:13.700Z,88.10
2023-07-25T10:20:23.927Z,83.40
2023-07-25T10:25:29.838Z,77.60
2023-07-25T10:30:34.754Z,75.50
2023-07-25T10:35:47.492Z,76.30
2023-07-25T10:40:56.061Z,74.80
2023-07-25T10:46:03.333Z,72.70
2023-07-25T10:51:09.143Z,70.60
2023-07-25T10:56:14.953Z,71.40
2023-07-25T11:01:34.895Z,70.20
2023-07-25T11:06:41.738Z,69.90
2023-07-25T11:11:47.229Z,69.20
2023-07-25T11:16:53.143Z,67.80
2023-07-25T11:21:58.525Z,66.00
2023-07-25T11:27:04.850Z,64.60
2023-07-25T11:32:09.961Z,64.30
2023-07-25T11:37:15.084Z,64.60
2023-07-25T11:47:23.070Z,63.10
2023-07-25T11:52:28.271Z,65.40
2023-07-25T12:02:39.374Z,69.70
2023-07-25T12:07:54.732Z,72.70
2023-07-25T12:12:59.628Z,75.10
2023-07-25T12:23:10.813Z,77.70
2023-07-25T12:38:23.935Z,75.40
2023-07-25T12:53:36.845Z,71.90
2023-07-25T13:08:50.305Z,71.90
2023-07-25T13:24:04.508Z,71.40
2023-07-25T13:39:19.007Z,70.60
2023-07-25T13:54:32.429Z,70.60
2023-07-25T14:00:13.563Z,71.90
2023-07-25T14:05:08.898Z,71.10
2023-07-25T14:10:14.627Z,71.10
2023-07-25T14:15:18.705Z,70.30
2023-07-25T14:25:28.757Z,70.80
2023-07-25T14:40:46.214Z,71.20
2023-07-25T14:55:59.561Z,71.90
2023-07-25T15:11:12.945Z,80.00
2023-07-25T15:16:16.662Z,80.60
2023-07-25T15:26:25.689Z,71.00
2023-07-25T15:36:33.504Z,70.50
2023-07-25T15:41:38.466Z,78.40
2023-07-25T15:56:51.516Z,68.30
2023-07-25T16:12:05.272Z,68.60
2023-07-25T16:17:08.902Z,78.00
2023-07-25T16:27:17.791Z,69.20
2023-07-25T16:42:30.744Z,69.40
2023-07-25T16:57:43.921Z,69.00
2023-07-25T17:12:57.040Z,68.00
2023-07-25T17:28:10.677Z,68.20
2023-07-25T17:43:24.125Z,68.30
2023-07-25T17:48:27.787Z,70.10
2023-07-25T17:58:36.701Z,69.50
2023-07-25T18:13:51.432Z,73.20
2023-07-25T18:29:04.558Z,76.20
2023-07-25T18:44:20.058Z,78.00
2023-07-25T18:59:32.958Z,79.80
2023-07-25T19:14:45.913Z,81.50
2023-07-25T19:19:49.514Z,90.90
2023-07-25T19:29:58.559Z,83.60
2023-07-25T19:40:07.745Z,84.60
2023-07-25T19:45:12.860Z,85.30
2023-07-25T19:50:16.567Z,92.40
2023-07-25T20:00:25.721Z,87.20
2023-07-25T20:15:38.760Z,93.70
2023-07-25T20:30:51.870Z,90.40
2023-07-25T20:46:07.372Z,91.10
2023-07-25T21:01:20.694Z,92.00
2023-07-25T21:16:35.589Z,93.20
2023-07-25T21:31:48.801Z,94.10
2023-07-25T21:47:01.603Z,94.60
2023-07-25T22:02:20.859Z,95.40
2023-07-25T22:17:33.858Z,96.00
2023-07-25T22:22:38.232Z,96.30
2023-07-25T22:27:41.705Z,96.50
2023-07-25T22:32:46.860Z,96.50
2023-07-25T22:37:59.994Z,96.60
2023-07-25T22:48:09.162Z,99.90
2023-07-25T22:53:12.728Z,99.90
2023-07-25T23:03:21.807Z,97.80
2023-07-25T23:18:34.885Z,97.90
2023-07-25T23:33:47.761Z,98.10
2023-07-25T23:38:51.338Z,98.50
2023-07-25T23:49:00.194Z,98.40
